sensor_id;sensor_type;location;lat;lon;timestamp;temperature;humidity
15717;DHT22;7960;50.908;4.204;2023-06-24T00:00:20;20.60;99.90
15717;DHT22;7960;50.908;4.204;2023-06-24T00:02:47;20.50;99.90
15717;DHT22;7960;50.908;4.204;2023-06-24T00:05:16;20.50;99.90
15717;DHT22;7960;50.908;4.204;2023-06-24T00:07:43;20.40;99.90
15717;DHT22;7960;50.908;4.204;2023-06-24T00:10:14;20.30;99.90
15717;DHT22;7960;50.908;4.204;2023-06-24T00:12:41;20.30;99.90
15717;DHT22;7960;50.908;4.204;2023-06-24T00:15:08;20.30;99.90
15717;DHT22;7960;50.908;4.204;2023-06-24T00:17:36;20.20;99.90
15717;DHT22;7960;50.908;4.204;2023-06-24T00:20:03;20.20;99.90
15717;DHT22;7960;50.908;4.204;2023-06-24T00:22:33;20.10;99.90
15717;DHT22;7960;50.908;4.204;2023-06-24T00:24:59;19.90;99.90
15717;DHT22;7960;50.908;4.204;2023-06-24T00:27:28;19.90;99.90
15717;DHT22;7960;50.908;4.204;2023-06-24T00:29:55;20.00;99.90
15717;DHT22;7960;50.908;4.204;2023-06-24T00:32:22;19.90;99.90
15717;DHT22;7960;50.908;4.204;2023-06-24T00:34:48;19.90;99.90
15717;DHT22;7960;50.908;4.204;2023-06-24T00:37:15;19.60;99.90
15717;DHT22;7960;50.908;4.204;2023-06-24T00:39:42;19.80;99.90
15717;DHT22;7960;50.908;4.204;2023-06-24T00:42:09;19.90;99.90
15717;DHT22;7960;50.908;4.204;2023-06-24T00:44:38;19.90;99.90
15717;DHT22;7960;50.908;4.204;2023-06-24T00:47:06;19.90;99.90
15717;DHT22;7960;50.908;4.204;2023-06-24T00:49:33;19.80;99.90
15717;DHT22;7960;50.908;4.204;2023-06-24T00:52:00;19.80;99.90
15717;DHT22;7960;50.908;4.204;2023-06-24T00:54:27;19.60;99.90
15717;DHT22;7960;50.908;4.204;2023-06-24T00:56:56;19.60;99.90
15717;DHT22;7960;50.908;4.204;2023-06-24T00:59:27;19.40;99.90
15717;DHT22;7960;50.908;4.204;2023-06-24T01:01:58;18.80;99.90
15717;DHT22;7960;50.908;4.204;2023-06-24T01:04:27;18.90;99.90
15717;DHT22;7960;50.908;4.204;2023-06-24T01:06:55;19.10;99.90
15717;DHT22;7960;50.908;4.204;2023-06-24T01:09:23;19.10;99.90
15717;DHT22;7960;50.908;4.204;2023-06-24T01:11:50;19.10;99.90
15717;DHT22;7960;50.908;4.204;2023-06-24T01:14:17;19.00;99.90
15717;DHT22;7960;50.908;4.204;2023-06-24T01:16:52;19.00;99.90
15717;DHT22;7960;50.908;4.204;2023-06-24T01:19:49;19.00;99.90
15717;DHT22;7960;50.908;4.204;2023-06-24T01:22:37;18.90;99.90
15717;DHT22;7960;50.908;4.204;2023-06-24T01:25:22;18.90;99.90
15717;DHT22;7960;50.908;4.204;2023-06-24T01:28:14;18.80;99.90
15717;DHT22;7960;50.908;4.204;2023-06-24T01:31:05;18.70;99.90
15717;DHT22;7960;50.908;4.204;2023-06-24T01:33:44;18.60;99.90
15717;DHT22;7960;50.908;4.204;2023-06-24T01:36:15;18.70;99.90
15717;DHT22;7960;50.908;4.204;2023-06-24T01:38:48;18.40;99.90
15717;DHT22;7960;50.908;4.204;2023-06-24T01:41:21;18.50;99.90
15717;DHT22;7960;50.908;4.204;2023-06-24T01:43:50;18.50;99.90
15717;DHT22;7960;50.908;4.204;2023-06-24T01:46:22;18.50;99.90
15717;DHT22;7960;50.908;4.204;2023-06-24T01:48:53;18.40;99.90
15717;DHT22;7960;50.908;4.204;2023-06-24T01:51:22;18.50;99.90
15717;DHT22;7960;50.908;4.204;2023-06-24T01:53:53;18.50;99.90
15717;DHT22;7960;50.908;4.204;2023-06-24T01:56:22;18.50;99.90
15717;DHT22;7960;50.908;4.204;2023-06-24T01:58:52;18.50;99.90
15717;DHT22;7960;50.908;4.204;2023-06-24T02:01:20;18.30;99.90
15717;DHT22;7960;50.908;4.204;2023-06-24T02:03:50;18.40;99.90
15717;DHT22;7960;50.908;4.204;2023-06-24T02:06:19;18.30;99.90
15717;DHT22;7960;50.908;4.204;2023-06-24T02:08:49;18.40;99.90
15717;DHT22;7960;50.908;4.204;2023-06-24T02:11:18;18.30;99.90
15717;DHT22;7960;50.908;4.204;2023-06-24T02:13:45;18.30;99.90
15717;DHT22;7960;50.908;4.204;2023-06-24T02:16:13;18.20;99.90
15717;DHT22;7960;50.908;4.204;2023-06-24T02:18:41;18.20;99.90
15717;DHT22;7960;50.908;4.204;2023-06-24T02:21:10;18.30;99.90
15717;DHT22;7960;50.908;4.204;2023-06-24T02:23:39;18.20;99.90
15717;DHT22;7960;50.908;4.204;2023-06-24T02:26:06;18.10;99.90
15717;DHT22;7960;50.908;4.204;2023-06-24T02:28:34;18.20;99.90
15717;DHT22;7960;50.908;4.204;2023-06-24T02:31:01;18.20;99.90
15717;DHT22;7960;50.908;4.204;2023-06-24T02:33:28;18.10;99.90
15717;DHT22;7960;50.908;4.204;2023-06-24T02:35:55;18.10;99.90
15717;DHT22;7960;50.908;4.204;2023-06-24T02:38:24;18.10;99.90
15717;DHT22;7960;50.908;4.204;2023-06-24T02:40:51;18.10;99.90
15717;DHT22;7960;50.908;4.204;2023-06-24T02:43:18;18.10;99.90
15717;DHT22;7960;50.908;4.204;2023-06-24T02:45:46;18.00;99.90
15717;DHT22;7960;50.908;4.204;2023-06-24T02:48:15;18.00;99.90
15717;DHT22;7960;50.908;4.204;2023-06-24T02:50:43;18.00;99.90
15717;DHT22;7960;50.908;4.204;2023-06-24T02:53:12;17.90;99.90
15717;DHT22;7960;50.908;4.204;2023-06-24T02:55:41;17.90;99.90
15717;DHT22;7960;50.908;4.204;2023-06-24T02:58:09;17.80;99.90
15717;DHT22;7960;50.908;4.204;2023-06-24T03:00:37;17.70;99.90
15717;DHT22;7960;50.908;4.204;2023-06-24T03:03:05;17.70;99.90
15717;DHT22;7960;50.908;4.204;2023-06-24T03:05:34;17.70;99.90
15717;DHT22;7960;50.908;4.204;2023-06-24T03:08:01;17.70;99.90
15717;DHT22;7960;50.908;4.204;2023-06-24T03:10:29;17.60;99.90
15717;DHT22;7960;50.908;4.204;2023-06-24T03:12:57;17.70;99.90
15717;DHT22;7960;50.908;4.204;2023-06-24T03:15:24;17.60;99.90
15717;DHT22;7960;50.908;4.204;2023-06-24T03:17:51;17.70;99.90
15717;DHT22;7960;50.908;4.204;2023-06-24T03:20:18;17.60;99.90
15717;DHT22;7960;50.908;4.204;2023-06-24T03:22:45;17.60;99.90
15717;DHT22;7960;50.908;4.204;2023-06-24T03:25:12;17.60;99.90
15717;DHT22;7960;50.908;4.204;2023-06-24T03:27:39;17.50;99.90
15717;DHT22;7960;50.908;4.204;2023-06-24T03:30:10;17.40;99.90
15717;DHT22;7960;50.908;4.204;2023-06-24T03:32:37;17.30;99.90
15717;DHT22;7960;50.908;4.204;2023-06-24T03:35:04;17.30;99.90
15717;DHT22;7960;50.908;4.204;2023-06-24T03:37:32;17.30;99.90
15717;DHT22;7960;50.908;4.204;2023-06-24T03:39:59;17.30;99.90
15717;DHT22;7960;50.908;4.204;2023-06-24T03:42:26;17.30;99.90
15717;DHT22;7960;50.908;4.204;2023-06-24T03:44:54;17.30;99.90
15717;DHT22;7960;50.908;4.204;2023-06-24T03:47:22;17.30;99.90
15717;DHT22;7960;50.908;4.204;2023-06-24T03:49:49;17.00;99.90
15717;DHT22;7960;50.908;4.204;2023-06-24T03:52:16;17.10;99.90
15717;DHT22;7960;50.908;4.204;2023-06-24T03:54:43;17.10;99.90
15717;DHT22;7960;50.908;4.204;2023-06-24T03:57:10;17.10;99.90
15717;DHT22;7960;50.908;4.204;2023-06-24T03:59:37;17.20;99.90
15717;DHT22;7960;50.908;4.204;2023-06-24T04:02:05;17.30;99.90
15717;DHT22;7960;50.908;4.204;2023-06-24T04:04:34;17.30;99.90
15717;DHT22;7960;50.908;4.204;2023-06-24T04:07:01;17.30;99.90
15717;DHT22;7960;50.908;4.204;2023-06-24T04:09:29;17.20;99.90
15717;DHT22;7960;50.908;4.204;2023-06-24T04:11:56;17.20;99.90
15717;DHT22;7960;50.908;4.204;2023-06-24T04:14:23;17.20;99.90
15717;DHT22;7960;50.908;4.204;2023-06-24T04:16:50;17.30;99.90
15717;DHT22;7960;50.908;4.204;2023-06-24T04:19:17;17.30;99.90
15717;DHT22;7960;50.908;4.204;2023-06-24T04:21:45;17.20;99.90
15717;DHT22;7960;50.908;4.204;2023-06-24T04:24:11;17.10;99.90
15717;DHT22;7960;50.908;4.204;2023-06-24T04:26:38;17.00;99.90
15717;DHT22;7960;50.908;4.204;2023-06-24T04:29:05;17.10;99.90
15717;DHT22;7960;50.908;4.204;2023-06-24T04:31:32;17.20;99.90
15717;DHT22;7960;50.908;4.204;2023-06-24T04:33:59;17.30;99.90
15717;DHT22;7960;50.908;4.204;2023-06-24T04:36:27;17.30;99.90
15717;DHT22;7960;50.908;4.204;2023-06-24T04:38:55;17.30;99.90
15717;DHT22;7960;50.908;4.204;2023-06-24T04:41:22;17.30;99.90
15717;DHT22;7960;50.908;4.204;2023-06-24T04:43:49;17.30;99.90
15717;DHT22;7960;50.908;4.204;2023-06-24T04:46:16;17.20;99.90
15717;DHT22;7960;50.908;4.204;2023-06-24T04:48:43;17.20;99.90
15717;DHT22;7960;50.908;4.204;2023-06-24T04:51:09;17.20;99.90
15717;DHT22;7960;50.908;4.204;2023-06-24T04:53:36;17.10;99.90
15717;DHT22;7960;50.908;4.204;2023-06-24T04:56:04;17.10;99.90
15717;DHT22;7960;50.908;4.204;2023-06-24T04:58:31;17.10;99.90
15717;DHT22;7960;50.908;4.204;2023-06-24T05:00:58;17.10;99.90
15717;DHT22;7960;50.908;4.204;2023-06-24T05:03:25;17.30;99.90
15717;DHT22;7960;50.908;4.204;2023-06-24T05:05:52;17.20;99.90
15717;DHT22;7960;50.908;4.204;2023-06-24T05:08:19;17.30;99.90
15717;DHT22;7960;50.908;4.204;2023-06-24T05:10:46;17.30;99.90
15717;DHT22;7960;50.908;4.204;2023-06-24T05:13:14;17.40;99.90
15717;DHT22;7960;50.908;4.204;2023-06-24T05:15:41;17.40;99.90
15717;DHT22;7960;50.908;4.204;2023-06-24T05:18:07;17.40;99.90
15717;DHT22;7960;50.908;4.204;2023-06-24T05:20:34;17.40;99.90
15717;DHT22;7960;50.908;4.204;2023-06-24T05:23:01;17.30;99.90
15717;DHT22;7960;50.908;4.204;2023-06-24T05:25:28;17.40;99.90
15717;DHT22;7960;50.908;4.204;2023-06-24T05:27:55;17.40;99.90
15717;DHT22;7960;50.908;4.204;2023-06-24T05:30:23;17.40;99.90
15717;DHT22;7960;50.908;4.204;2023-06-24T05:32:50;17.40;99.90
15717;DHT22;7960;50.908;4.204;2023-06-24T05:35:17;17.50;99.90
15717;DHT22;7960;50.908;4.204;2023-06-24T05:37:43;17.60;99.90
15717;DHT22;7960;50.908;4.204;2023-06-24T05:40:11;17.60;99.90
15717;DHT22;7960;50.908;4.204;2023-06-24T05:42:38;17.60;99.90
15717;DHT22;7960;50.908;4.204;2023-06-24T05:45:06;17.50;99.90
15717;DHT22;7960;50.908;4.204;2023-06-24T05:47:34;17.60;99.90
15717;DHT22;7960;50.908;4.204;2023-06-24T05:50:01;17.60;99.90
15717;DHT22;7960;50.908;4.204;2023-06-24T05:52:28;17.70;99.90
15717;DHT22;7960;50.908;4.204;2023-06-24T05:54:55;17.80;99.90
15717;DHT22;7960;50.908;4.204;2023-06-24T05:57:22;17.80;99.90
15717;DHT22;7960;50.908;4.204;2023-06-24T05:59:49;17.90;99.90
15717;DHT22;7960;50.908;4.204;2023-06-24T06:02:15;18.00;99.90
15717;DHT22;7960;50.908;4.204;2023-06-24T06:04:44;18.10;99.90
15717;DHT22;7960;50.908;4.204;2023-06-24T06:07:10;18.10;99.90
15717;DHT22;7960;50.908;4.204;2023-06-24T06:09:37;18.20;99.90
15717;DHT22;7960;50.908;4.204;2023-06-24T06:12:05;18.30;99.90
15717;DHT22;7960;50.908;4.204;2023-06-24T06:14:32;18.30;99.90
15717;DHT22;7960;50.908;4.204;2023-06-24T06:16:59;18.50;99.90
15717;DHT22;7960;50.908;4.204;2023-06-24T06:19:26;18.50;99.90
15717;DHT22;7960;50.908;4.204;2023-06-24T06:21:54;18.70;99.90
15717;DHT22;7960;50.908;4.204;2023-06-24T06:24:21;18.80;99.90
15717;DHT22;7960;50.908;4.204;2023-06-24T06:26:48;18.80;99.90
15717;DHT22;7960;50.908;4.204;2023-06-24T06:29:15;18.80;99.90
15717;DHT22;7960;50.908;4.204;2023-06-24T06:31:41;19.00;99.90
15717;DHT22;7960;50.908;4.204;2023-06-24T06:34:08;19.00;99.90
15717;DHT22;7960;50.908;4.204;2023-06-24T06:36:35;18.90;99.90
15717;DHT22;7960;50.908;4.204;2023-06-24T06:39:03;19.00;99.90
15717;DHT22;7960;50.908;4.204;2023-06-24T06:41:30;19.10;99.90
15717;DHT22;7960;50.908;4.204;2023-06-24T06:43:57;19.30;99.90
15717;DHT22;7960;50.908;4.204;2023-06-24T06:46:24;19.30;99.90
15717;DHT22;7960;50.908;4.204;2023-06-24T06:48:51;19.40;99.90
15717;DHT22;7960;50.908;4.204;2023-06-24T06:51:18;19.40;99.90
15717;DHT22;7960;50.908;4.204;2023-06-24T06:53:45;19.50;99.90
15717;DHT22;7960;50.908;4.204;2023-06-24T06:56:18;19.40;99.90
15717;DHT22;7960;50.908;4.204;2023-06-24T06:58:45;19.50;99.90
15717;DHT22;7960;50.908;4.204;2023-06-24T07:01:11;19.50;99.90
15717;DHT22;7960;50.908;4.204;2023-06-24T07:03:39;19.60;99.90
15717;DHT22;7960;50.908;4.204;2023-06-24T07:06:06;19.70;99.90
15717;DHT22;7960;50.908;4.204;2023-06-24T07:08:33;19.70;99.90
15717;DHT22;7960;50.908;4.204;2023-06-24T07:11:00;19.70;99.90
15717;DHT22;7960;50.908;4.204;2023-06-24T07:13:29;19.70;99.90
15717;DHT22;7960;50.908;4.204;2023-06-24T07:15:55;19.80;99.90
15717;DHT22;7960;50.908;4.204;2023-06-24T07:18:22;19.90;99.90
15717;DHT22;7960;50.908;4.204;2023-06-24T07:20:49;20.00;99.90
15717;DHT22;7960;50.908;4.204;2023-06-24T07:23:16;20.10;99.90
15717;DHT22;7960;50.908;4.204;2023-06-24T07:25:43;20.10;99.90
15717;DHT22;7960;50.908;4.204;2023-06-24T07:28:10;20.10;99.90
15717;DHT22;7960;50.908;4.204;2023-06-24T07:30:38;20.10;99.90
15717;DHT22;7960;50.908;4.204;2023-06-24T07:33:05;20.10;99.90
15717;DHT22;7960;50.908;4.204;2023-06-24T07:35:32;20.00;99.90
15717;DHT22;7960;50.908;4.204;2023-06-24T07:37:58;20.10;99.90
15717;DHT22;7960;50.908;4.204;2023-06-24T07:40:25;20.20;99.90
15717;DHT22;7960;50.908;4.204;2023-06-24T07:42:53;20.20;99.90
15717;DHT22;7960;50.908;4.204;2023-06-24T07:45:20;20.30;99.90
15717;DHT22;7960;50.908;4.204;2023-06-24T07:47:48;20.40;99.90
15717;DHT22;7960;50.908;4.204;2023-06-24T07:50:15;20.40;99.90
15717;DHT22;7960;50.908;4.204;2023-06-24T07:52:42;20.40;99.90
15717;DHT22;7960;50.908;4.204;2023-06-24T07:55:09;20.50;99.90
15717;DHT22;7960;50.908;4.204;2023-06-24T07:57:36;20.60;99.90
15717;DHT22;7960;50.908;4.204;2023-06-24T08:00:03;20.70;99.90
15717;DHT22;7960;50.908;4.204;2023-06-24T08:02:30;20.70;99.90
15717;DHT22;7960;50.908;4.204;2023-06-24T08:04:58;20.80;99.90
15717;DHT22;7960;50.908;4.204;2023-06-24T08:07:25;20.60;99.90
15717;DHT22;7960;50.908;4.204;2023-06-24T08:09:52;20.70;99.90
15717;DHT22;7960;50.908;4.204;2023-06-24T08:12:19;20.60;99.90
15717;DHT22;7960;50.908;4.204;2023-06-24T08:14:46;20.60;99.90
15717;DHT22;7960;50.908;4.204;2023-06-24T08:17:12;20.50;99.90
15717;DHT22;7960;50.908;4.204;2023-06-24T08:19:39;20.70;99.90
15717;DHT22;7960;50.908;4.204;2023-06-24T08:22:07;21.00;99.90
15717;DHT22;7960;50.908;4.204;2023-06-24T08:24:35;21.10;99.90
15717;DHT22;7960;50.908;4.204;2023-06-24T08:27:03;21.20;99.90
15717;DHT22;7960;50.908;4.204;2023-06-24T08:29:30;21.40;99.90
15717;DHT22;7960;50.908;4.204;2023-06-24T08:31:57;21.40;99.90
15717;DHT22;7960;50.908;4.204;2023-06-24T08:34:23;21.30;99.90
15717;DHT22;7960;50.908;4.204;2023-06-24T08:36:50;21.40;99.90
15717;DHT22;7960;50.908;4.204;2023-06-24T08:39:18;21.50;99.90
15717;DHT22;7960;50.908;4.204;2023-06-24T08:41:45;21.70;99.90
15717;DHT22;7960;50.908;4.204;2023-06-24T08:44:12;21.80;99.90
15717;DHT22;7960;50.908;4.204;2023-06-24T08:46:39;21.80;99.40
15717;DHT22;7960;50.908;4.204;2023-06-24T08:49:13;21.80;99.10
15717;DHT22;7960;50.908;4.204;2023-06-24T08:51:44;21.80;98.90
15717;DHT22;7960;50.908;4.204;2023-06-24T08:54:14;21.90;98.70
15717;DHT22;7960;50.908;4.204;2023-06-24T08:56:42;22.00;98.70
15717;DHT22;7960;50.908;4.204;2023-06-24T08:59:09;22.10;98.70
15717;DHT22;7960;50.908;4.204;2023-06-24T09:01:36;22.20;98.80
15717;DHT22;7960;50.908;4.204;2023-06-24T09:04:04;22.40;99.40
15717;DHT22;7960;50.908;4.204;2023-06-24T09:06:31;22.40;99.40
15717;DHT22;7960;50.908;4.204;2023-06-24T09:08:58;22.40;98.60
15717;DHT22;7960;50.908;4.204;2023-06-24T09:11:25;22.40;99.00
15717;DHT22;7960;50.908;4.204;2023-06-24T09:13:58;22.50;99.20
15717;DHT22;7960;50.908;4.204;2023-06-24T09:16:25;22.70;98.50
15717;DHT22;7960;50.908;4.204;2023-06-24T09:18:53;22.70;97.40
15717;DHT22;7960;50.908;4.204;2023-06-24T09:21:23;22.60;97.00
15717;DHT22;7960;50.908;4.204;2023-06-24T09:23:53;22.70;97.00
15717;DHT22;7960;50.908;4.204;2023-06-24T09:26:22;23.00;95.70
15717;DHT22;7960;50.908;4.204;2023-06-24T09:28:49;23.20;96.50
15717;DHT22;7960;50.908;4.204;2023-06-24T09:31:18;23.30;95.90
15717;DHT22;7960;50.908;4.204;2023-06-24T09:33:45;23.30;94.70
15717;DHT22;7960;50.908;4.204;2023-06-24T09:36:13;23.30;93.50
15717;DHT22;7960;50.908;4.204;2023-06-24T09:38:41;23.30;92.50
15717;DHT22;7960;50.908;4.204;2023-06-24T09:41:10;23.40;92.40
15717;DHT22;7960;50.908;4.204;2023-06-24T09:43:37;23.50;92.90
15717;DHT22;7960;50.908;4.204;2023-06-24T09:46:06;23.50;93.00
15717;DHT22;7960;50.908;4.204;2023-06-24T09:48:34;23.80;92.90
15717;DHT22;7960;50.908;4.204;2023-06-24T09:51:03;23.80;92.40
15717;DHT22;7960;50.908;4.204;2023-06-24T09:53:31;24.10;91.10
15717;DHT22;7960;50.908;4.204;2023-06-24T09:55:59;24.00;89.60
15717;DHT22;7960;50.908;4.204;2023-06-24T09:58:27;24.30;90.70
15717;DHT22;7960;50.908;4.204;2023-06-24T10:00:54;24.40;91.10
15717;DHT22;7960;50.908;4.204;2023-06-24T10:03:22;24.20;91.60
15717;DHT22;7960;50.908;4.204;2023-06-24T10:05:50;24.50;90.90
15717;DHT22;7960;50.908;4.204;2023-06-24T10:08:18;24.60;90.20
15717;DHT22;7960;50.908;4.204;2023-06-24T10:10:45;24.70;88.90
15717;DHT22;7960;50.908;4.204;2023-06-24T10:13:12;24.90;90.10
15717;DHT22;7960;50.908;4.204;2023-06-24T10:15:39;24.90;85.60
15717;DHT22;7960;50.908;4.204;2023-06-24T10:18:31;24.70;84.20
15717;DHT22;7960;50.908;4.204;2023-06-24T10:21:00;24.60;84.80
15717;DHT22;7960;50.908;4.204;2023-06-24T10:23:30;24.80;85.10
15717;DHT22;7960;50.908;4.204;2023-06-24T10:25:57;24.90;85.10
15717;DHT22;7960;50.908;4.204;2023-06-24T10:28:24;25.00;84.60
15717;DHT22;7960;50.908;4.204;2023-06-24T10:30:54;25.00;83.00
15717;DHT22;7960;50.908;4.204;2023-06-24T10:33:23;24.90;82.90
15717;DHT22;7960;50.908;4.204;2023-06-24T10:35:50;24.90;85.30
15717;DHT22;7960;50.908;4.204;2023-06-24T10:38:19;25.00;86.30
15717;DHT22;7960;50.908;4.204;2023-06-24T10:40:49;24.80;86.10
15717;DHT22;7960;50.908;4.204;2023-06-24T10:43:26;25.10;86.20
15717;DHT22;7960;50.908;4.204;2023-06-24T10:45:55;25.20;85.00
15717;DHT22;7960;50.908;4.204;2023-06-24T10:48:22;25.30;85.10
15717;DHT22;7960;50.908;4.204;2023-06-24T10:50:49;25.30;84.30
15717;DHT22;7960;50.908;4.204;2023-06-24T10:53:16;25.40;84.40
15717;DHT22;7960;50.908;4.204;2023-06-24T10:55:46;25.60;84.40
15717;DHT22;7960;50.908;4.204;2023-06-24T10:58:14;25.60;82.80
15717;DHT22;7960;50.908;4.204;2023-06-24T11:00:42;25.70;83.50
15717;DHT22;7960;50.908;4.204;2023-06-24T11:03:12;25.70;82.10
15717;DHT22;7960;50.908;4.204;2023-06-24T11:05:40;25.80;83.10
15717;DHT22;7960;50.908;4.204;2023-06-24T11:08:07;25.90;81.90
15717;DHT22;7960;50.908;4.204;2023-06-24T11:10:42;25.90;82.70
15717;DHT22;7960;50.908;4.204;2023-06-24T11:13:11;25.90;81.90
15717;DHT22;7960;50.908;4.204;2023-06-24T11:15:39;25.90;83.60
15717;DHT22;7960;50.908;4.204;2023-06-24T11:18:08;26.00;82.90
15717;DHT22;7960;50.908;4.204;2023-06-24T11:20:36;26.00;81.50
15717;DHT22;7960;50.908;4.204;2023-06-24T11:23:06;25.80;76.40
15717;DHT22;7960;50.908;4.204;2023-06-24T11:25:39;25.80;76.60
15717;DHT22;7960;50.908;4.204;2023-06-24T11:28:14;25.80;76.30
15717;DHT22;7960;50.908;4.204;2023-06-24T11:30:41;26.00;74.00
15717;DHT22;7960;50.908;4.204;2023-06-24T11:33:08;26.20;73.80
15717;DHT22;7960;50.908;4.204;2023-06-24T11:35:35;26.20;75.00
15717;DHT22;7960;50.908;4.204;2023-06-24T11:38:02;26.20;74.70
15717;DHT22;7960;50.908;4.204;2023-06-24T11:40:30;26.20;74.40
15717;DHT22;7960;50.908;4.204;2023-06-24T11:42:59;26.30;73.60
15717;DHT22;7960;50.908;4.204;2023-06-24T11:45:28;26.10;74.70
15717;DHT22;7960;50.908;4.204;2023-06-24T11:48:02;26.40;76.00
15717;DHT22;7960;50.908;4.204;2023-06-24T11:50:30;26.30;75.50
15717;DHT22;7960;50.908;4.204;2023-06-24T11:52:57;26.30;76.50
15717;DHT22;7960;50.908;4.204;2023-06-24T11:55:25;26.40;75.10
15717;DHT22;7960;50.908;4.204;2023-06-24T11:57:54;26.40;74.70
15717;DHT22;7960;50.908;4.204;2023-06-24T12:00:22;26.60;75.20
15717;DHT22;7960;50.908;4.204;2023-06-24T12:02:55;26.40;72.40
15717;DHT22;7960;50.908;4.204;2023-06-24T12:05:26;26.50;73.30
15717;DHT22;7960;50.908;4.204;2023-06-24T12:07:58;26.50;73.80
15717;DHT22;7960;50.908;4.204;2023-06-24T12:10:25;26.70;74.60
15717;DHT22;7960;50.908;4.204;2023-06-24T12:12:52;27.00;73.70
15717;DHT22;7960;50.908;4.204;2023-06-24T12:15:19;27.10;74.50
15717;DHT22;7960;50.908;4.204;2023-06-24T12:17:46;27.10;72.30
15717;DHT22;7960;50.908;4.204;2023-06-24T12:20:15;27.40;72.50
15717;DHT22;7960;50.908;4.204;2023-06-24T12:22:43;27.50;72.60
15717;DHT22;7960;50.908;4.204;2023-06-24T12:25:11;27.60;69.80
15717;DHT22;7960;50.908;4.204;2023-06-24T12:27:38;27.70;69.20
15717;DHT22;7960;50.908;4.204;2023-06-24T12:30:07;27.80;70.50
15717;DHT22;7960;50.908;4.204;2023-06-24T12:32:34;27.60;70.00
15717;DHT22;7960;50.908;4.204;2023-06-24T12:35:01;27.50;71.00
15717;DHT22;7960;50.908;4.204;2023-06-24T12:37:30;27.90;71.90
15717;DHT22;7960;50.908;4.204;2023-06-24T12:39:57;28.00;69.50
15717;DHT22;7960;50.908;4.204;2023-06-24T12:42:25;28.20;71.50
15717;DHT22;7960;50.908;4.204;2023-06-24T12:44:52;28.40;69.50
15717;DHT22;7960;50.908;4.204;2023-06-24T12:47:19;28.50;69.70
15717;DHT22;7960;50.908;4.204;2023-06-24T12:49:46;28.80;70.30
15717;DHT22;7960;50.908;4.204;2023-06-24T12:52:13;28.70;67.90
15717;DHT22;7960;50.908;4.204;2023-06-24T12:54:41;28.20;69.70
15717;DHT22;7960;50.908;4.204;2023-06-24T12:57:08;28.30;70.40
15717;DHT22;7960;50.908;4.204;2023-06-24T12:59:35;28.70;66.30
15717;DHT22;7960;50.908;4.204;2023-06-24T13:02:02;28.70;65.60
15717;DHT22;7960;50.908;4.204;2023-06-24T13:04:29;28.80;66.40
15717;DHT22;7960;50.908;4.204;2023-06-24T13:06:56;29.10;64.70
15717;DHT22;7960;50.908;4.204;2023-06-24T13:09:23;29.00;63.50
15717;DHT22;7960;50.908;4.204;2023-06-24T13:11:51;28.20;63.30
15717;DHT22;7960;50.908;4.204;2023-06-24T13:14:18;27.80;65.30
15717;DHT22;7960;50.908;4.204;2023-06-24T13:16:45;28.10;67.20
15717;DHT22;7960;50.908;4.204;2023-06-24T13:19:11;28.70;67.90
15717;DHT22;7960;50.908;4.204;2023-06-24T13:21:39;29.00;65.90
15717;DHT22;7960;50.908;4.204;2023-06-24T13:24:07;29.10;64.00
15717;DHT22;7960;50.908;4.204;2023-06-24T13:26:34;29.30;66.10
15717;DHT22;7960;50.908;4.204;2023-06-24T13:29:02;30.00;65.50
15717;DHT22;7960;50.908;4.204;2023-06-24T13:31:29;30.20;63.70
15717;DHT22;7960;50.908;4.204;2023-06-24T13:33:56;29.30;64.10
15717;DHT22;7960;50.908;4.204;2023-06-24T13:36:30;29.50;66.00
15717;DHT22;7960;50.908;4.204;2023-06-24T13:38:58;28.90;65.40
15717;DHT22;7960;50.908;4.204;2023-06-24T13:41:25;29.20;66.40
15717;DHT22;7960;50.908;4.204;2023-06-24T13:43:55;29.70;64.30
15717;DHT22;7960;50.908;4.204;2023-06-24T13:46:23;30.00;63.10
15717;DHT22;7960;50.908;4.204;2023-06-24T13:48:50;30.20;61.90
15717;DHT22;7960;50.908;4.204;2023-06-24T13:51:18;30.20;61.80
15717;DHT22;7960;50.908;4.204;2023-06-24T13:53:46;30.10;61.10
15717;DHT22;7960;50.908;4.204;2023-06-24T13:56:12;30.20;62.30
15717;DHT22;7960;50.908;4.204;2023-06-24T13:58:39;29.70;60.90
15717;DHT22;7960;50.908;4.204;2023-06-24T14:01:06;29.80;62.10
15717;DHT22;7960;50.908;4.204;2023-06-24T14:03:34;30.00;62.60
15717;DHT22;7960;50.908;4.204;2023-06-24T14:06:02;30.20;61.90
15717;DHT22;7960;50.908;4.204;2023-06-24T14:08:29;30.80;62.10
15717;DHT22;7960;50.908;4.204;2023-06-24T14:10:56;30.60;60.50
15717;DHT22;7960;50.908;4.204;2023-06-24T14:13:23;30.80;61.00
15717;DHT22;7960;50.908;4.204;2023-06-24T14:15:50;30.00;59.30
15717;DHT22;7960;50.908;4.204;2023-06-24T14:18:17;30.10;62.60
15717;DHT22;7960;50.908;4.204;2023-06-24T14:20:45;30.70;60.10
15717;DHT22;7960;50.908;4.204;2023-06-24T14:23:12;31.10;60.60
15717;DHT22;7960;50.908;4.204;2023-06-24T14:25:39;30.70;57.90
15717;DHT22;7960;50.908;4.204;2023-06-24T14:28:06;30.20;58.00
15717;DHT22;7960;50.908;4.204;2023-06-24T14:30:33;29.80;59.20
15717;DHT22;7960;50.908;4.204;2023-06-24T14:33:01;30.00;57.60
15717;DHT22;7960;50.908;4.204;2023-06-24T14:35:28;30.40;58.30
15717;DHT22;7960;50.908;4.204;2023-06-24T14:37:56;31.10;57.90
15717;DHT22;7960;50.908;4.204;2023-06-24T14:40:23;31.50;57.40
15717;DHT22;7960;50.908;4.204;2023-06-24T14:42:50;31.60;56.10
15717;DHT22;7960;50.908;4.204;2023-06-24T14:45:17;31.80;55.20
15717;DHT22;7960;50.908;4.204;2023-06-24T14:47:44;31.30;55.50
15717;DHT22;7960;50.908;4.204;2023-06-24T14:50:11;31.20;53.60
15717;DHT22;7960;50.908;4.204;2023-06-24T14:52:37;30.00;54.80
15717;DHT22;7960;50.908;4.204;2023-06-24T14:55:07;30.80;55.90
15717;DHT22;7960;50.908;4.204;2023-06-24T14:57:35;30.60;57.80
15717;DHT22;7960;50.908;4.204;2023-06-24T15:00:02;31.40;55.70
15717;DHT22;7960;50.908;4.204;2023-06-24T15:02:29;31.90;54.20
15717;DHT22;7960;50.908;4.204;2023-06-24T15:04:56;32.00;53.40
15717;DHT22;7960;50.908;4.204;2023-06-24T15:07:24;30.70;53.00
15717;DHT22;7960;50.908;4.204;2023-06-24T15:09:50;30.20;56.20
15717;DHT22;7960;50.908;4.204;2023-06-24T15:12:19;30.90;54.90
15717;DHT22;7960;50.908;4.204;2023-06-24T15:14:45;30.90;54.80
15717;DHT22;7960;50.908;4.204;2023-06-24T15:17:14;31.40;53.40
15717;DHT22;7960;50.908;4.204;2023-06-24T15:19:40;30.80;53.30
15717;DHT22;7960;50.908;4.204;2023-06-24T15:22:07;30.30;52.80
15717;DHT22;7960;50.908;4.204;2023-06-24T15:24:34;30.20;53.60
15717;DHT22;7960;50.908;4.204;2023-06-24T15:27:01;30.90;51.40
15717;DHT22;7960;50.908;4.204;2023-06-24T15:29:29;31.70;50.20
15717;DHT22;7960;50.908;4.204;2023-06-24T15:31:56;32.10;49.60
15717;DHT22;7960;50.908;4.204;2023-06-24T15:34:23;31.90;48.30
15717;DHT22;7960;50.908;4.204;2023-06-24T15:36:49;31.70;49.20
15717;DHT22;7960;50.908;4.204;2023-06-24T15:39:16;32.30;49.60
15717;DHT22;7960;50.908;4.204;2023-06-24T15:41:46;31.70;47.90
15717;DHT22;7960;50.908;4.204;2023-06-24T15:44:14;31.60;48.40
15717;DHT22;7960;50.908;4.204;2023-06-24T15:46:42;32.00;47.10
15717;DHT22;7960;50.908;4.204;2023-06-24T15:49:10;32.30;46.60